createdAt,value
2017-01-19T00:00:49.526Z,50.93
2017-01-19T00:01:59.299Z,50.84
2017-01-19T00:03:09.024Z,50.74
2017-01-19T00:04:18.748Z,50.74
2017-01-19T00:05:28.477Z,50.64
2017-01-19T00:06:38.646Z,50.55
2017-01-19T00:07:48.967Z,50.74
2017-01-19T00:08:59.136Z,50.64
2017-01-19T00:10:08.417Z,50.64
2017-01-19T00:11:18.582Z,50.64
2017-01-19T00:12:28.307Z,50.93
2017-01-19T00:13:38.116Z,50.35
2017-01-19T00:14:47.841Z,50.35
2017-01-19T00:15:58.018Z,50.74
2017-01-19T00:17:08.183Z,50.64
2017-01-19T00:18:17.908Z,50.64
2017-01-19T00:19:28.136Z,50.64
2017-01-19T00:20:38.351Z,50.55
2017-01-19T00:21:48.523Z,50.74
2017-01-19T00:22:58.244Z,50.64
2017-01-19T00:24:07.522Z,50.84
2017-01-19T00:25:18.179Z,50.74
2017-01-19T00:26:28.343Z,50.45
2017-01-19T00:27:38.072Z,50.64
2017-01-19T00:28:47.802Z,51.03
2017-01-19T00:29:57.527Z,50.64
2017-01-19T00:31:06.860Z,50.64
2017-01-19T00:32:16.581Z,50.74
2017-01-19T00:33:26.306Z,51.12
2017-01-19T00:34:36.943Z,51.21
2017-01-19T00:35:47.113Z,51.12
2017-01-19T00:36:57.781Z,51.7
2017-01-19T00:38:08.839Z,51.5
2017-01-19T00:39:19.012Z,51.7
2017-01-19T00:40:29.613Z,51.5
2017-01-19T00:41:40.230Z,51.5
2017-01-19T00:42:50.447Z,51.21
2017-01-19T00:44:00.179Z,51.41
2017-01-19T00:45:10.353Z,51.5
2017-01-19T00:46:19.638Z,51.7
2017-01-19T00:47:30.255Z,51.6
2017-01-19T00:48:40.052Z,51.41
2017-01-19T00:49:49.781Z,51.31
2017-01-19T00:50:59.534Z,51.21
2017-01-19T00:52:08.815Z,51.21
2017-01-19T00:53:19.420Z,51.5
2017-01-19T00:54:29.646Z,51.5
2017-01-19T00:55:39.814Z,51.6
2017-01-19T00:56:49.984Z,51.5
2017-01-19T00:57:59.713Z,51.5
2017-01-19T00:59:09.874Z,51.31
2017-01-19T01:00:19.643Z,51.5
2017-01-19T01:01:29.816Z,51.5
2017-01-19T01:02:40.429Z,51.5
2017-01-19T01:03:50.150Z,51.31
2017-01-19T01:04:59.875Z,51.31
2017-01-19T01:06:10.095Z,51.5
2017-01-19T01:07:20.265Z,51.5
2017-01-19T01:08:29.998Z,51.5
2017-01-19T01:09:39.719Z,51.5
2017-01-19T01:10:49.885Z,51.5
2017-01-19T01:12:00.547Z,51.41
2017-01-19T01:13:10.278Z,51.29
2017-01-19T01:14:19.556Z,51.79
2017-01-19T01:15:29.280Z,51.57
2017-01-19T01:16:39.450Z,51.7
2017-01-19T01:17:49.227Z,51.6
2017-01-19T01:18:58.956Z,51.67
2017-01-19T01:20:09.129Z,51.7
2017-01-19T01:21:19.294Z,51.6
2017-01-19T01:22:29.019Z,51.98
2017-01-19T01:23:39.680Z,51.6
2017-01-19T01:24:49.433Z,51.67
2017-01-19T01:26:00.043Z,52.05
2017-01-19T01:27:09.336Z,51.86
2017-01-19T01:28:19.061Z,51.86
2017-01-19T01:29:28.838Z,51.76
2017-01-19T01:30:38.571Z,51.86
2017-01-19T01:31:49.184Z,51.98
2017-01-19T01:32:58.461Z,51.76
2017-01-19T01:34:08.194Z,51.86
2017-01-19T01:35:18.411Z,51.67
2017-01-19T01:36:27.705Z,51.57
2017-01-19T01:37:37.873Z,51.76
2017-01-19T01:38:47.594Z,51.67
2017-01-19T01:39:57.320Z,51.76
2017-01-19T01:41:06.652Z,51.86
2017-01-19T01:42:16.382Z,51.86
2017-01-19T01:43:26.544Z,51.67
2017-01-19T01:44:36.717Z,51.86
2017-01-19T01:45:46.447Z,51.76
2017-01-19T01:46:56.668Z,51.86
2017-01-19T01:48:06.394Z,51.86
2017-01-19T01:49:16.575Z,51.86
2017-01-19T01:50:26.737Z,51.57
2017-01-19T01:51:36.471Z,51.76
2017-01-19T01:52:46.251Z,51.86
2017-01-19T01:53:55.977Z,51.67
2017-01-19T01:55:05.706Z,51.86
2017-01-19T01:56:15.428Z,51.86
2017-01-19T01:57:25.165Z,51.86
2017-01-19T01:58:34.951Z,51.67
2017-01-19T01:59:45.567Z,51.67
2017-01-19T02:00:55.738Z,51.76
2017-01-19T02:02:05.907Z,51.86
2017-01-19T02:03:15.637Z,51.76
2017-01-19T02:04:26.294Z,51.48
2017-01-19T02:05:36.055Z,51.86
2017-01-19T02:06:45.784Z,51.95
2017-01-19T02:07:56.395Z,51.86
2017-01-19T02:09:06.124Z,51.76
2017-01-19T02:10:15.901Z,51.86
2017-01-19T02:11:25.630Z,51.76
2017-01-19T02:12:35.804Z,51.86
2017-01-19T02:13:46.405Z,51.95
2017-01-19T02:14:55.687Z,51.95
2017-01-19T02:16:05.468Z,51.76
2017-01-19T02:17:15.194Z,52.43
2017-01-19T02:18:25.359Z,52.24
2017-01-19T02:19:35.085Z,52.34
2017-01-19T02:20:44.811Z,52.05
2017-01-19T02:21:54.144Z,51.95
2017-01-19T02:23:03.894Z,52.15
2017-01-19T02:24:13.623Z,52.15
2017-01-19T02:25:22.905Z,52.05
2017-01-19T02:26:33.074Z,52.05
2017-01-19T02:27:43.287Z,52.43
2017-01-19T02:28:53.457Z,52.34
2017-01-19T02:30:03.179Z,52.34
2017-01-19T02:31:13.368Z,52.43
2017-01-19T02:32:23.534Z,52.43
2017-01-19T02:33:33.312Z,52.43
2017-01-19T02:34:43.041Z,52.43
2017-01-19T02:35:52.775Z,52.53
2017-01-19T02:37:02.943Z,51.95
2017-01-19T02:38:12.673Z,52.34
2017-01-19T02:39:22.911Z,52.34
2017-01-19T02:40:32.645Z,52.34
2017-01-19T02:41:41.934Z,52.34
2017-01-19T02:42:51.216Z,52.24
2017-01-19T02:44:00.949Z,52.15
2017-01-19T02:45:10.722Z,52.05
2017-01-19T02:46:23.484Z,52.43
2017-01-19T02:47:33.649Z,52.43
2017-01-19T02:48:43.815Z,52.34
2017-01-19T02:49:53.537Z,52.34
2017-01-19T02:51:03.510Z,52.43
2017-01-19T02:52:13.239Z,52.34
2017-01-19T02:53:22.993Z,52.34
2017-01-19T02:54:33.158Z,52.43
2017-01-19T02:55:42.888Z,52.34
2017-01-19T02:56:52.665Z,52.34
2017-01-19T02:58:02.386Z,52.43
2017-01-19T02:59:12.552Z,52.24
2017-01-19T03:00:22.301Z,51.95
2017-01-19T03:01:32.027Z,52.15
2017-01-19T03:02:41.905Z,51.95
2017-01-19T03:03:52.073Z,52.15
2017-01-19T03:05:01.350Z,52.22
2017-01-19T03:06:11.084Z,52.15
2017-01-19T03:07:21.261Z,52.15
2017-01-19T03:08:31.483Z,51.83
2017-01-19T03:09:41.208Z,52.34
2017-01-19T03:10:50.938Z,52.34
2017-01-19T03:12:00.663Z,52.34
2017-01-19T03:13:11.273Z,52.24
2017-01-19T03:14:21.054Z,52.15
2017-01-19T03:15:30.779Z,52.15
2017-01-19T03:16:40.509Z,52.43
2017-01-19T03:17:50.678Z,52.15
2017-01-19T03:19:00.847Z,52.43
2017-01-19T03:20:11.061Z,52.15
2017-01-19T03:21:20.786Z,52.4
2017-01-19T03:22:30.959Z,52.22
2017-01-19T03:23:40.241Z,51.95
2017-01-19T03:24:49.970Z,52.4
2017-01-19T03:26:00.628Z,52.12
2017-01-19T03:27:09.909Z,52.31
2017-01-19T03:28:19.635Z,52.22
2017-01-19T03:29:29.803Z,51.93
2017-01-19T03:30:39.529Z,52.12
2017-01-19T03:31:49.302Z,52.4
2017-01-19T03:32:59.027Z,52.4
2017-01-19T03:34:09.640Z,52.12
2017-01-19T03:35:19.366Z,52.31
2017-01-19T03:36:29.095Z,52.12
2017-01-19T03:37:38.868Z,52.22
2017-01-19T03:38:49.038Z,52.31
2017-01-19T03:39:58.775Z,51.93
2017-01-19T03:41:08.944Z,52.12
2017-01-19T03:42:18.673Z,52.4
2017-01-19T03:43:28.887Z,53.08
2017-01-19T03:44:38.179Z,52.79
2017-01-19T03:45:48.341Z,53.08
2017-01-19T03:46:58.078Z,53.08
2017-01-19T03:48:07.355Z,52.79
2017-01-19T03:49:17.129Z,53.08
2017-01-19T03:50:27.298Z,53.08
2017-01-19T03:51:36.607Z,52.98
2017-01-19T03:52:46.333Z,52.88
2017-01-19T03:53:56.530Z,53.08
2017-01-19T03:55:06.755Z,52.79
2017-01-19T03:56:16.492Z,52.79
2017-01-19T03:57:26.213Z,53.08
2017-01-19T03:58:35.938Z,52.98
2017-01-19T03:59:46.549Z,52.98
2017-01-19T04:00:56.333Z,53.27
2017-01-19T04:02:05.618Z,53.27
2017-01-19T04:03:15.356Z,52.98
2017-01-19T04:04:24.645Z,52.98
2017-01-19T04:05:34.814Z,52.88
2017-01-19T04:06:44.591Z,52.88
2017-01-19T04:07:54.313Z,52.98
2017-01-19T04:09:04.046Z,52.88
2017-01-19T04:10:14.219Z,52.98
2017-01-19T04:11:24.388Z,52.88
2017-01-19T04:12:34.614Z,52.98
2017-01-19T04:13:44.331Z,52.79
2017-01-19T04:14:54.061Z,53.27
2017-01-19T04:16:04.222Z,53.08
2017-01-19T04:17:13.947Z,53.08
2017-01-19T04:18:24.164Z,53.27
2017-01-19T04:19:33.886Z,52.88
2017-01-19T04:20:44.055Z,52.98
2017-01-19T04:21:53.808Z,52.98
2017-01-19T04:23:03.525Z,52.98
2017-01-19T04:24:13.743Z,53.08
2017-01-19T04:25:23.916Z,53.08
2017-01-19T04:26:33.637Z,52.69
2017-01-19T04:27:43.367Z,53.08
2017-01-19T04:28:53.092Z,53.36
2017-01-19T04:30:02.873Z,52.79
2017-01-19T04:31:13.038Z,52.98
2017-01-19T04:32:23.208Z,53.45
2017-01-19T04:33:32.969Z,53.08
2017-01-19T04:34:42.694Z,53.36
2017-01-19T04:35:53.355Z,53.27
2017-01-19T04:37:03.077Z,53.27
2017-01-19T04:38:12.806Z,53.45
2017-01-19T04:39:22.971Z,53.08
2017-01-19T04:40:32.692Z,53.36
2017-01-19T04:41:42.470Z,53.17
2017-01-19T04:42:52.203Z,53.36
2017-01-19T04:44:01.952Z,52.98
2017-01-19T04:45:12.118Z,52.98
2017-01-19T04:46:21.855Z,52.79
2017-01-19T04:47:31.633Z,53.17
2017-01-19T04:48:41.361Z,53.17
2017-01-19T04:49:51.971Z,53.27
2017-01-19T04:51:01.723Z,52.79
2017-01-19T04:52:11.453Z,52.69
2017-01-19T04:53:21.235Z,52.59
2017-01-19T04:54:30.963Z,52.98
2017-01-19T04:55:41.573Z,52.59
2017-01-19T04:56:51.741Z,52.79
2017-01-19T04:58:01.909Z,52.98
2017-01-19T04:59:12.127Z,52.59
2017-01-19T05:00:21.852Z,53.27
2017-01-19T05:01:31.577Z,53.45
2017-01-19T05:02:41.301Z,53.17
2017-01-19T05:03:51.040Z,52.98
2017-01-19T05:05:00.819Z,53.17
2017-01-19T05:06:10.552Z,52.98
2017-01-19T05:07:20.276Z,52.79
2017-01-19T05:08:30.893Z,53.08
2017-01-19T05:09:40.614Z,52.98
2017-01-19T05:10:50.827Z,52.98
2017-01-19T05:12:00.556Z,53.17
2017-01-19T05:13:10.277Z,53.17
2017-01-19T05:14:20.025Z,53.36
2017-01-19T05:15:30.635Z,53.36
2017-01-19T05:16:40.407Z,53.36
2017-01-19T05:17:50.140Z,53.65
2017-01-19T05:18:59.857Z,53.84
2017-01-19T05:20:09.582Z,53.93
2017-01-19T05:21:19.303Z,54.13
2017-01-19T05:22:29.543Z,54.13
2017-01-19T05:23:39.273Z,54.03
2017-01-19T05:24:49.877Z,53.74
2017-01-19T05:26:00.046Z,53.55
2017-01-19T05:27:09.335Z,53.74
2017-01-19T05:28:19.116Z,53.77
2017-01-19T05:29:28.409Z,53.29
2017-01-19T05:30:38.150Z,53.55
2017-01-19T05:31:47.431Z,53.27
2017-01-19T05:32:57.608Z,53.45
2017-01-19T05:34:07.042Z,53.29
2017-01-19T05:35:17.206Z,53.17
2017-01-19T05:36:27.375Z,52.98
2017-01-19T05:37:36.652Z,53.17
2017-01-19T05:38:46.377Z,53.93
2017-01-19T05:39:56.154Z,56.6
2017-01-19T05:41:06.323Z,59.38
2017-01-19T05:42:16.053Z,60.61
2017-01-19T05:43:25.338Z,61.22
2017-01-19T05:44:34.619Z,61.29
2017-01-19T05:45:44.400Z,61.32
2017-01-19T05:46:54.565Z,61.03
2017-01-19T05:48:04.294Z,60.55
2017-01-19T05:49:14.019Z,60.74
2017-01-19T05:50:24.184Z,60.64
2017-01-19T05:51:33.961Z,60.74
2017-01-19T05:52:44.131Z,59.98
2017-01-19T05:53:53.855Z,60.07
2017-01-19T05:55:03.156Z,59.98
2017-01-19T05:56:13.326Z,59.59
2017-01-19T05:57:23.543Z,59.59
2017-01-19T05:58:34.152Z,59.12
2017-01-19T05:59:44.322Z,59.38
2017-01-19T06:00:54.050Z,58.83
2017-01-19T06:02:04.655Z,58.45
2017-01-19T06:03:13.989Z,58.93
2017-01-19T06:04:24.157Z,58.42
2017-01-19T06:05:33.879Z,58.45
2017-01-19T06:06:43.645Z,58.54
2017-01-19T06:07:53.817Z,58.16
2017-01-19T06:09:04.026Z,58.16
2017-01-19T06:10:13.759Z,58.26
2017-01-19T06:11:23.928Z,58.36
2017-01-19T06:12:33.654Z,57.97
2017-01-19T06:13:43.823Z,57.5
2017-01-19T06:14:53.596Z,57.78
2017-01-19T06:16:02.877Z,57.68
2017-01-19T06:17:12.611Z,57.59
2017-01-19T06:18:23.659Z,57.21
2017-01-19T06:19:33.390Z,56.82
2017-01-19T06:20:42.718Z,56.92
2017-01-19T06:21:52.447Z,56.54
2017-01-19T06:23:02.180Z,56.73
2017-01-19T06:24:12.345Z,56.7
2017-01-19T06:25:22.083Z,56.41
2017-01-19T06:26:32.300Z,56.32
2017-01-19T06:27:42.473Z,56.16
2017-01-19T06:28:52.194Z,55.87
2017-01-19T06:30:02.363Z,55.58
2017-01-19T06:31:12.536Z,55.49
2017-01-19T06:32:22.309Z,55.68
2017-01-19T06:33:32.476Z,55.87
2017-01-19T06:34:42.200Z,55.18
2017-01-19T06:35:51.921Z,55.2
2017-01-19T06:37:01.646Z,55.4
2017-01-19T06:38:11.420Z,55.4
2017-01-19T06:39:21.588Z,54.5
2017-01-19T06:40:31.314Z,54.91
2017-01-19T06:41:41.035Z,54.72
2017-01-19T06:42:50.760Z,54.89
2017-01-19T06:44:00.534Z,54.89
2017-01-19T06:45:10.261Z,54.79
2017-01-19T06:46:19.995Z,55.11
2017-01-19T06:47:29.721Z,54.41
2017-01-19T06:48:39.890Z,54.41
2017-01-19T06:49:50.547Z,54.91
2017-01-19T06:51:00.717Z,54.13
2017-01-19T06:52:10.882Z,54.99
2017-01-19T06:53:21.055Z,54.79
2017-01-19T06:54:31.236Z,54.34
2017-01-19T06:55:41.019Z,54.25
2017-01-19T06:56:50.743Z,54.13
2017-01-19T06:58:00.467Z,53.86
2017-01-19T06:59:10.189Z,54.25
2017-01-19T07:00:19.918Z,54.32
2017-01-19T07:01:30.143Z,54.13
2017-01-19T07:02:39.420Z,54.22
2017-01-19T07:03:49.585Z,53.96
2017-01-19T07:04:59.307Z,54.03
2017-01-19T07:06:09.032Z,54.03
2017-01-19T07:07:18.829Z,53.84
2017-01-19T07:08:28.114Z,53.65
2017-01-19T07:09:38.286Z,53.55
2017-01-19T07:10:48.012Z,53.55
2017-01-19T07:11:58.189Z,53.58
2017-01-19T07:13:08.847Z,53.74
2017-01-19T07:14:18.568Z,53.45
2017-01-19T07:15:28.737Z,53.39
2017-01-19T07:16:38.466Z,53.45
2017-01-19T07:17:49.071Z,53.08
2017-01-19T07:18:58.844Z,53.29
2017-01-19T07:20:08.574Z,52.91
2017-01-19T07:21:18.747Z,52.98
2017-01-19T07:22:28.920Z,53.27
2017-01-19T07:23:38.653Z,52.98
2017-01-19T07:24:48.455Z,53.39
2017-01-19T07:25:58.183Z,52.62
2017-01-19T07:27:07.904Z,52.88
2017-01-19T07:28:17.630Z,52.98
2017-01-19T07:29:27.355Z,52.69
2017-01-19T07:30:37.580Z,53.08
2017-01-19T07:31:48.189Z,52.79
2017-01-19T07:32:57.914Z,52.79
2017-01-19T07:34:07.191Z,52.69
2017-01-19T07:35:16.920Z,52.79
2017-01-19T07:36:26.701Z,52.88
2017-01-19T07:37:36.869Z,52.98
2017-01-19T07:38:46.591Z,52.88
2017-01-19T07:39:56.320Z,53.17
2017-01-19T07:41:06.496Z,52.43
2017-01-19T07:42:16.278Z,52.5
2017-01-19T07:43:26.883Z,52.03
2017-01-19T07:44:36.168Z,52.24
2017-01-19T07:45:45.901Z,52.24
2017-01-19T07:46:56.514Z,52.31
2017-01-19T07:48:05.875Z,52.31
2017-01-19T07:49:15.599Z,51.83
2017-01-19T07:50:25.325Z,52.43
2017-01-19T07:51:35.493Z,51.95
2017-01-19T07:52:45.219Z,52.22
2017-01-19T07:53:54.996Z,52.34
2017-01-19T07:55:04.277Z,52.4
2017-01-19T07:56:14.002Z,51.93
2017-01-19T07:57:23.731Z,52.12
2017-01-19T07:58:33.461Z,51.93
2017-01-19T07:59:43.242Z,51.95
2017-01-19T08:00:52.962Z,51.93
2017-01-19T08:02:02.696Z,52.12
2017-01-19T08:03:12.869Z,52.31
2017-01-19T08:04:23.034Z,52.34
2017-01-19T08:05:32.807Z,52.53
2017-01-19T08:06:42.532Z,52.34
2017-01-19T08:07:52.697Z,51.74
2017-01-19T08:09:02.423Z,51.86
2017-01-19T08:10:12.152Z,51.57
2017-01-19T08:11:21.937Z,51.95
2017-01-19T08:12:32.102Z,51.86
2017-01-19T08:13:42.711Z,51.95
2017-01-19T08:14:52.432Z,51.95
2017-01-19T08:16:02.157Z,51.57
2017-01-19T08:17:11.938Z,51.67
2017-01-19T08:18:21.667Z,51.86
2017-01-19T08:19:31.392Z,51.76
2017-01-19T08:20:41.561Z,51.57
2017-01-19T08:21:51.731Z,51.86
2017-01-19T08:23:01.956Z,51.67
2017-01-19T08:24:11.241Z,51.67
2017-01-19T08:25:20.966Z,51.67
2017-01-19T08:26:30.688Z,51.86
2017-01-19T08:27:40.416Z,51.57
2017-01-19T08:28:49.746Z,51.95
2017-01-19T08:29:59.471Z,51.29
2017-01-19T08:31:09.200Z,51.38
2017-01-19T08:32:19.369Z,51.29
2017-01-19T08:33:28.650Z,51.19
2017-01-19T08:34:38.139Z,51.48
2017-01-19T08:35:47.868Z,51.48
2017-01-19T08:36:58.034Z,51.48
2017-01-19T08:38:07.755Z,51.76
2017-01-19T08:39:17.480Z,51.29
2017-01-19T08:40:27.257Z,51.09
2017-01-19T08:41:36.570Z,51.09
2017-01-19T08:42:46.292Z,51.09
2017-01-19T08:43:56.025Z,50.81
2017-01-19T08:45:05.754Z,50.52
2017-01-19T08:46:16.887Z,50.62
2017-01-19T08:47:26.617Z,50.62
2017-01-19T08:48:36.341Z,50.71
2017-01-19T08:49:46.515Z,50.62
2017-01-19T08:50:56.243Z,50.9
2017-01-19T08:52:06.021Z,50.43
2017-01-19T08:53:16.190Z,49.95
2017-01-19T08:54:25.927Z,50.24
2017-01-19T08:55:36.541Z,50.33
2017-01-19T08:56:46.270Z,50.24
2017-01-19T08:57:56.935Z,50.24
2017-01-19T08:59:06.668Z,50.33
2017-01-19T09:00:16.841Z,50.33
2017-01-19T09:01:27.014Z,50.43
2017-01-19T09:02:36.296Z,50.04
2017-01-19T09:03:45.625Z,50.04
2017-01-19T09:04:55.350Z,50.07
2017-01-19T09:06:05.113Z,49.78
2017-01-19T09:07:14.840Z,49.98
2017-01-19T09:08:24.570Z,49.98
2017-01-19T09:09:34.347Z,49.69
2017-01-19T09:10:43.632Z,49.49
2017-01-19T09:11:53.817Z,49.88
2017-01-19T09:13:03.987Z,49.57
2017-01-19T09:14:14.168Z,49.78
2017-01-19T09:15:23.944Z,49.88
2017-01-19T09:16:33.702Z,49.78
2017-01-19T09:17:42.983Z,49.98
2017-01-19T09:18:52.740Z,49.49
2017-01-19T09:20:02.905Z,49.3
2017-01-19T09:21:13.119Z,49.49
2017-01-19T09:22:22.843Z,49.69
2017-01-19T09:23:32.568Z,49.59
2017-01-19T09:24:42.289Z,49.4
2017-01-19T09:25:52.478Z,49.11
2017-01-19T09:27:02.727Z,49.3
2017-01-19T09:28:12.896Z,49.02
2017-01-19T09:29:23.501Z,49.3
2017-01-19T09:30:33.234Z,48.93
2017-01-19T09:31:43.399Z,48.93
2017-01-19T09:32:53.648Z,48.93
2017-01-19T09:34:03.829Z,49.02
2017-01-19T09:35:13.554Z,48.83
2017-01-19T09:36:23.279Z,48.83
2017-01-19T09:37:33.001Z,49.11
2017-01-19T09:38:43.222Z,48.83
2017-01-19T09:39:53.827Z,48.93
2017-01-19T09:41:03.108Z,49.02
2017-01-19T09:42:13.277Z,48.93
2017-01-19T09:43:23.450Z,48.83
2017-01-19T09:44:33.235Z,48.83
2017-01-19T09:45:42.953Z,49.21
2017-01-19T09:46:52.681Z,49.3
2017-01-19T09:48:03.299Z,49.02
2017-01-19T09:49:13.028Z,49.21
2017-01-19T09:50:23.285Z,48.83
2017-01-19T09:51:33.018Z,48.93
2017-01-19T09:52:42.739Z,48.83
2017-01-19T09:53:52.476Z,48.83
2017-01-19T09:55:02.646Z,49.02
2017-01-19T09:56:12.867Z,48.64
2017-01-19T09:57:23.028Z,48.93
2017-01-19T09:58:32.309Z,48.93
2017-01-19T09:59:42.043Z,48.73
2017-01-19T10:00:52.212Z,48.44
2017-01-19T10:02:02.441Z,48.54
2017-01-19T10:03:12.606Z,48.44
2017-01-19T10:04:22.331Z,48.73
2017-01-19T10:05:32.492Z,48.25
2017-01-19T10:06:42.221Z,48.35
2017-01-19T10:07:51.995Z,48.54
2017-01-19T10:09:02.183Z,47.87
2017-01-19T10:10:11.916Z,48.07
2017-01-19T10:11:22.086Z,47.97
2017-01-19T10:12:31.367Z,47.68
2017-01-19T10:13:41.589Z,47.78
2017-01-19T10:14:51.322Z,48.07
2017-01-19T10:16:01.484Z,48.07
2017-01-19T10:17:11.648Z,48.16
2017-01-19T10:18:21.373Z,48.09
2017-01-19T10:19:31.151Z,47.99
2017-01-19T10:20:41.764Z,48.09
2017-01-19T10:21:51.485Z,48.28
2017-01-19T10:23:01.654Z,48.38
2017-01-19T10:24:11.391Z,48.09
2017-01-19T10:25:21.629Z,47.42
2017-01-19T10:26:31.797Z,47.71
2017-01-19T10:27:41.967Z,47.8
2017-01-19T10:28:51.252Z,47.61
2017-01-19T10:30:01.425Z,47.61
2017-01-19T10:31:11.643Z,47.52
2017-01-19T10:32:21.808Z,47.42
2017-01-19T10:33:31.985Z,47.23
2017-01-19T10:34:41.722Z,47.23
2017-01-19T10:35:51.887Z,47.23
2017-01-19T10:37:01.660Z,47.03
2017-01-19T10:38:11.382Z,47.03
2017-01-19T10:39:21.551Z,46.94
2017-01-19T10:40:31.280Z,47.06
2017-01-19T10:41:41.013Z,46.67
2017-01-19T10:42:50.786Z,46.77
2017-01-19T10:44:00.960Z,47.06
2017-01-19T10:45:11.134Z,46.77
2017-01-19T10:46:20.870Z,46.58
2017-01-19T10:47:30.592Z,46.48
2017-01-19T10:48:40.368Z,46.58
2017-01-19T10:49:50.098Z,46.58
2017-01-19T10:50:59.823Z,46.67
2017-01-19T10:52:10.436Z,46.58
2017-01-19T10:53:20.161Z,46.48
2017-01-19T10:54:29.939Z,46.48
2017-01-19T10:55:39.668Z,46.61
2017-01-19T10:56:49.401Z,46.7
2017-01-19T10:57:59.567Z,46.8
2017-01-19T10:59:09.304Z,46.12
2017-01-19T11:00:19.077Z,46.12
2017-01-19T11:01:28.362Z,46.12
2017-01-19T11:02:38.536Z,45.74
2017-01-19T11:03:48.713Z,45.36
2017-01-19T11:04:58.886Z,45.74
2017-01-19T11:06:09.101Z,45.45
2017-01-19T11:07:18.852Z,45.29
2017-01-19T11:08:28.578Z,45.48
2017-01-19T11:09:38.318Z,45.19
2017-01-19T11:10:48.044Z,44.9
2017-01-19T11:11:57.845Z,44.81
2017-01-19T11:13:07.574Z,43.95
2017-01-19T11:14:17.299Z,43.95
2017-01-19T11:15:27.468Z,43.37
2017-01-19T11:16:37.646Z,43.66
2017-01-19T11:17:47.427Z,43.08
2017-01-19T11:18:57.621Z,42.51
2017-01-19T11:20:07.354Z,42.32
2017-01-19T11:21:17.519Z,42.32
2017-01-19T11:22:27.696Z,42.03
2017-01-19T11:23:38.382Z,41.65
2017-01-19T11:24:48.139Z,41.48
2017-01-19T11:25:57.864Z,41.19
2017-01-19T11:27:07.589Z,40.81
2017-01-19T11:28:17.323Z,41.09
2017-01-19T11:29:27.096Z,41
2017-01-19T11:30:36.385Z,40.33
2017-01-19T11:31:46.566Z,40.23
2017-01-19T11:32:56.741Z,39.94
2017-01-19T11:34:06.481Z,39.65
2017-01-19T11:35:16.254Z,39.56
2017-01-19T11:36:25.984Z,39.47
2017-01-19T11:37:37.057Z,39.18
2017-01-19T11:38:46.814Z,38.7
2017-01-19T11:39:56.543Z,39.37
2017-01-19T11:41:06.765Z,38.51
2017-01-19T11:42:16.938Z,38.89
2017-01-19T11:43:27.552Z,38.22
2017-01-19T11:44:37.721Z,38.89
2017-01-19T11:45:47.458Z,38.12
2017-01-19T11:46:57.679Z,37.76
2017-01-19T11:48:06.964Z,37.74
2017-01-19T11:49:16.693Z,37.93
2017-01-19T11:50:26.423Z,37.47
2017-01-19T11:51:36.616Z,37.38
2017-01-19T11:52:46.833Z,37.47
2017-01-19T11:53:56.563Z,37.28
2017-01-19T11:55:06.300Z,37.09
2017-01-19T11:56:15.581Z,37.18
2017-01-19T11:57:25.318Z,36.9
2017-01-19T11:58:35.536Z,36.9
2017-01-19T11:59:45.709Z,36.61
2017-01-19T12:00:55.462Z,36.61
2017-01-19T12:02:05.628Z,36.22
2017-01-19T12:03:15.356Z,36.22
2017-01-19T12:04:25.134Z,36.51
2017-01-19T12:05:35.307Z,36.04
2017-01-19T12:06:45.472Z,36.04
2017-01-19T12:07:55.202Z,36.04
2017-01-19T12:09:05.379Z,36.04
2017-01-19T12:10:15.156Z,35.75
2017-01-19T12:11:24.881Z,35.65
2017-01-19T12:12:35.498Z,35.36
2017-01-19T12:13:45.228Z,35.46
2017-01-19T12:14:54.961Z,35.38
2017-01-19T12:16:04.742Z,35.46
2017-01-19T12:17:14.912Z,35.17
2017-01-19T12:18:24.637Z,35.17
2017-01-19T12:19:34.818Z,35.27
2017-01-19T12:20:44.987Z,35.17
2017-01-19T12:21:54.769Z,34.79
2017-01-19T12:23:05.378Z,34.61
2017-01-19T12:24:15.111Z,34.71
2017-01-19T12:25:25.277Z,34.52
2017-01-19T12:26:35.451Z,34.31
2017-01-19T12:27:45.327Z,34.33
2017-01-19T12:28:55.056Z,34.22
2017-01-19T12:30:04.789Z,34.23
2017-01-19T12:31:14.518Z,34.23
2017-01-19T12:32:25.131Z,34.14
2017-01-19T12:33:35.348Z,34.33
2017-01-19T12:34:45.081Z,34.04
2017-01-19T12:35:55.691Z,34.14
2017-01-19T12:37:05.863Z,33.84
2017-01-19T12:38:15.592Z,33.75
2017-01-19T12:39:25.370Z,33.94
2017-01-19T12:40:35.098Z,33.65
2017-01-19T12:41:44.824Z,33.47
2017-01-19T12:42:54.557Z,33.56
2017-01-19T12:44:04.290Z,33.56
2017-01-19T12:45:14.067Z,33.65
2017-01-19T12:46:24.279Z,33.84
2017-01-19T12:47:33.561Z,33.65
2017-01-19T12:48:44.182Z,33.08
2017-01-19T12:49:53.910Z,33.27
2017-01-19T12:51:04.136Z,33.17
2017-01-19T12:52:13.877Z,33.08
2017-01-19T12:53:23.606Z,33.08
2017-01-19T12:54:33.771Z,33.17
2017-01-19T12:55:43.497Z,32.98
2017-01-19T12:56:53.278Z,33.27
2017-01-19T12:58:03.455Z,32.7
2017-01-19T12:59:13.628Z,32.79
2017-01-19T13:00:23.801Z,32.79
2017-01-19T13:01:33.530Z,32.6
2017-01-19T13:02:43.315Z,33.08
2017-01-19T13:03:53.052Z,32.51
2017-01-19T13:05:02.786Z,32.79
2017-01-19T13:06:12.514Z,32.89
2017-01-19T13:07:22.691Z,32.51
2017-01-19T13:08:32.469Z,32.31
2017-01-19T13:09:42.202Z,32.12
2017-01-19T13:10:51.931Z,32.51
2017-01-19T13:12:02.104Z,32.6
2017-01-19T13:13:12.278Z,32.7
2017-01-19T13:14:22.063Z,32.6
2017-01-19T13:15:32.240Z,32.41
2017-01-19T13:16:41.965Z,32.41
2017-01-19T13:17:52.178Z,32.21
2017-01-19T13:19:02.356Z,32.12
2017-01-19T13:20:12.577Z,32.21
2017-01-19T13:21:22.306Z,32.03
2017-01-19T13:22:32.479Z,32.21
2017-01-19T13:23:43.536Z,32.31
2017-01-19T13:24:53.289Z,32.03
2017-01-19T13:26:03.511Z,31.93
2017-01-19T13:27:13.244Z,32.31
2017-01-19T13:28:22.977Z,32.31
2017-01-19T13:29:33.591Z,31.74
2017-01-19T13:30:43.327Z,31.84
2017-01-19T13:31:54.000Z,31.64
2017-01-19T13:33:03.730Z,31.93
2017-01-19T13:34:14.346Z,32.03
2017-01-19T13:35:24.072Z,31.74
2017-01-19T13:36:34.245Z,32.03
2017-01-19T13:37:44.466Z,32.21
2017-01-19T13:38:54.637Z,32.51
2017-01-19T13:40:04.380Z,32.51
2017-01-19T13:41:14.554Z,32.79
2017-01-19T13:42:24.279Z,33.08
2017-01-19T13:43:34.060Z,32.6
2017-01-19T13:44:44.233Z,33.37
2017-01-19T13:45:54.842Z,33.17
2017-01-19T13:47:05.017Z,33.17
2017-01-19T13:48:14.744Z,33.37
2017-01-19T13:49:24.517Z,33.84
2017-01-19T13:50:34.250Z,33.75
2017-01-19T13:51:44.863Z,33.65
2017-01-19T13:52:55.033Z,33.65
2017-01-19T13:54:04.761Z,33.56
2017-01-19T13:55:14.546Z,33.47
2017-01-19T13:56:24.283Z,33.65
2017-01-19T13:57:34.456Z,33.84
2017-01-19T13:58:44.625Z,34.04
2017-01-19T13:59:54.351Z,33.94
2017-01-19T14:01:04.136Z,33.84
2017-01-19T14:02:14.309Z,34.04
2017-01-19T14:03:24.482Z,34.23
2017-01-19T14:04:34.215Z,34.23
2017-01-19T14:05:43.500Z,34.12
2017-01-19T14:06:53.742Z,34.22
2017-01-19T14:08:03.911Z,34.42
2017-01-19T14:09:13.640Z,34.33
2017-01-19T14:10:23.369Z,34.52
2017-01-19T14:11:33.098Z,35.17
2017-01-19T14:12:43.319Z,34.41
2017-01-19T14:13:53.053Z,34.5
2017-01-19T14:15:03.218Z,34.69
2017-01-19T14:16:13.395Z,34.69
2017-01-19T14:17:23.568Z,35.36
2017-01-19T14:18:32.909Z,35.27
2017-01-19T14:19:43.078Z,35.27
2017-01-19T14:20:52.815Z,35.27
2017-01-19T14:22:02.980Z,35.46
2017-01-19T14:23:12.706Z,35.55
2017-01-19T14:24:22.923Z,35.44
2017-01-19T14:25:32.660Z,35.44
2017-01-19T14:26:42.837Z,35.53
2017-01-19T14:27:53.446Z,35.92
2017-01-19T14:29:03.619Z,35.83
2017-01-19T14:30:13.393Z,36.02
2017-01-19T14:31:23.121Z,35.83
2017-01-19T14:32:32.854Z,35.83
2017-01-19T14:33:43.464Z,36.4
2017-01-19T14:34:53.641Z,36.59
2017-01-19T14:36:04.750Z,36.3
2017-01-19T14:37:14.916Z,36.49
2017-01-19T14:38:25.089Z,36.3
2017-01-19T14:39:35.258Z,36.59
2017-01-19T14:40:44.983Z,36.69
2017-01-19T14:41:55.204Z,36.79
2017-01-19T14:43:05.382Z,36.79
2017-01-19T14:44:15.111Z,37.07
2017-01-19T14:45:25.276Z,36.69
2017-01-19T14:46:35.005Z,37.26
2017-01-19T14:47:45.226Z,36.96
2017-01-19T14:48:55.400Z,37.07
2017-01-19T14:50:05.565Z,37.34
2017-01-19T14:51:15.290Z,37.26
2017-01-19T14:52:25.019Z,37.34
2017-01-19T14:53:35.244Z,37.24
2017-01-19T14:54:45.417Z,37.43
2017-01-19T14:55:55.590Z,37.53
2017-01-19T14:57:05.319Z,37.34
2017-01-19T14:58:15.489Z,37.43
2017-01-19T14:59:25.706Z,37.34
2017-01-19T15:00:35.440Z,37.43
2017-01-19T15:01:45.608Z,37.63
2017-01-19T15:02:55.782Z,38.01